Time;durP1;ratioP1;P1;durP2;ratioP2;P2;SDS_P1;SDS_P2;PMS_P1;PMS_P2;Temp;Humidity;BMP_temperature;BMP_pressure;BME280_temperature;BME280_humidity;BME280_pressure;Samples;Min_cycle;Max_cycle;Signal;HPM_P1;HPM_P2
2023/07/31 00:01:31;;;;;;;2.40;1.35;;;14.50;99.90;;;14.20;100.00;97314.72;5009587;28;20085;-38
2023/07/31 00:03:56;;;;;;;2.47;1.45;;;14.40;99.90;;;14.10;100.00;97308.19;5005378;28;20388;-39
2023/07/31 00:06:22;;;;;;;1.75;1.35;;;14.40;99.90;;;14.10;100.00;97309.06;5005248;28;20036;-38
2023/07/31 00:08:48;;;;;;;2.03;1.30;;;14.40;99.90;;;14.00;100.00;97304.28;5000745;28;20061;-38
2023/07/31 00:11:13;;;;;;;2.90;1.38;;;14.30;99.90;;;13.99;100.00;97311.41;4999995;28;20079;-38
2023/07/31 00:13:39;;;;;;;3.03;1.40;;;14.30;99.90;;;13.94;100.00;97313.44;5009204;28;20127;-38
2023/07/31 00:16:05;;;;;;;2.00;1.20;;;14.20;99.90;;;13.90;100.00;97320.69;5006160;28;20029;-38
2023/07/31 00:18:30;;;;;;;3.38;1.58;;;14.20;99.90;;;13.86;100.00;97312.97;5003230;28;20119;-38
2023/07/31 00:20:56;;;;;;;4.50;1.80;;;14.10;99.90;;;13.77;100.00;97309.00;5004844;28;20058;-40
2023/07/31 00:23:22;;;;;;;3.35;1.30;;;14.10;99.90;;;13.75;100.00;97310.88;5004900;28;20129;-38
2023/07/31 00:25:47;;;;;;;3.92;1.40;;;14.00;99.90;;;13.72;100.00;97311.03;5003736;28;20041;-38
2023/07/31 00:28:13;;;;;;;3.42;1.50;;;14.00;99.90;;;13.67;100.00;97310.41;4996209;28;20056;-39
2023/07/31 00:30:39;;;;;;;4.38;1.50;;;14.00;99.90;;;13.62;100.00;97308.00;5004200;28;20361;-38
2023/07/31 00:33:05;;;;;;;4.70;1.23;;;13.90;99.90;;;13.63;100.00;97309.69;5005255;28;20110;-38
2023/07/31 00:35:31;;;;;;;3.92;1.50;;;13.90;99.90;;;13.64;100.00;97303.47;5004726;28;20105;-39
2023/07/31 00:37:58;;;;;;;6.22;2.10;;;13.90;99.90;;;13.67;100.00;97305.94;5005076;28;20060;-38
2023/07/31 00:40:23;;;;;;;4.68;1.60;;;14.00;99.90;;;13.68;100.00;97301.53;5002260;28;20072;-38
2023/07/31 00:42:49;;;;;;;2.25;1.30;;;13.90;99.90;;;13.69;100.00;97296.16;5007339;28;20034;-37
2023/07/31 00:45:15;;;;;;;3.20;1.58;;;14.00;99.90;;;13.67;100.00;97299.81;5005683;28;20041;-38
2023/07/31 00:47:40;;;;;;;2.33;1.40;;;13.90;99.90;;;13.67;100.00;97302.44;5010882;28;20437;-38
2023/07/31 00:50:07;;;;;;;2.85;1.35;;;13.90;99.90;;;13.64;100.00;97302.59;5007821;28;20429;-38
2023/07/31 00:52:33;;;;;;;3.60;1.33;;;13.90;99.90;;;13.58;100.00;97295.81;5008908;28;20051;-38
2023/07/31 00:55:00;;;;;;;1.85;1.27;;;13.80;99.90;;;13.53;100.00;97306.66;5009793;28;20033;-39
2023/07/31 00:57:25;;;;;;;1.67;1.20;;;13.80;99.90;;;13.48;100.00;97313.13;5006360;28;20239;-38
2023/07/31 00:59:51;;;;;;;3.85;1.60;;;13.80;99.90;;;13.44;100.00;97300.97;5020289;28;21202;-38
2023/07/31 01:02:17;;;;;;;5.30;1.40;;;13.70;99.90;;;13.34;100.00;97301.41;5006799;28;20116;-38
2023/07/31 01:04:43;;;;;;;3.22;1.48;;;13.70;99.90;;;13.33;100.00;97315.63;5012689;28;20064;-38
2023/07/31 01:07:31;;;;;;;3.13;1.48;;;13.60;99.90;;;13.30;100.00;97304.28;5004670;28;20437;-39
2023/07/31 01:10:12;;;;;;;3.67;1.50;;;13.60;99.90;;;13.24;100.00;97296.63;5003134;28;20025;-39
2023/07/31 01:12:38;;;;;;;2.10;1.30;;;13.50;99.90;;;13.18;100.00;97303.94;5028721;28;20029;-37
2023/07/31 01:15:06;;;;;;;2.17;1.20;;;13.50;99.90;;;13.15;100.00;97298.81;5011846;28;20481;-38
2023/07/31 01:17:32;;;;;;;6.53;1.65;;;13.50;99.90;;;13.13;100.00;97298.00;5010566;28;20037;-38
2023/07/31 01:20:05;;;;;;;3.08;1.35;;;13.40;99.90;;;13.11;100.00;97293.72;5003456;28;20037;-40
2023/07/31 01:23:03;;;;;;;3.10;1.50;;;13.40;99.90;;;13.03;100.00;97280.00;5026105;28;20164;-38
2023/07/31 01:25:52;;;;;;;4.78;1.63;;;13.40;99.90;;;13.06;100.00;97280.69;5012190;28;20679;-38
2023/07/31 01:28:37;;;;;;;5.20;1.58;;;13.40;99.90;;;13.04;100.00;97281.72;5005299;28;20768;-40
2023/07/31 01:31:07;;;;;;;2.58;1.30;;;13.40;99.90;;;13.10;100.00;97282.28;5019869;28;20041;-39
2023/07/31 01:33:33;;;;;;;4.78;1.58;;;13.40;99.90;;;13.12;100.00;97279.56;5010590;28;20028;-38
2023/07/31 01:35:59;;;;;;;3.90;1.67;;;13.40;99.90;;;13.14;100.00;97278.53;5003040;28;20041;-38
2023/07/31 01:38:25;;;;;;;3.55;1.73;;;13.50;99.90;;;13.16;100.00;97267.88;5007147;28;20030;-38
2023/07/31 01:40:53;;;;;;;2.33;1.42;;;13.50;99.90;;;13.20;100.00;97274.72;5006314;28;20036;-38
2023/07/31 01:43:20;;;;;;;4.18;1.92;;;13.50;99.90;;;13.24;100.00;97272.78;5008902;28;21062;-38
2023/07/31 01:45:45;;;;;;;2.58;1.50;;;13.50;99.90;;;13.31;100.00;97268.94;5001485;28;20613;-38
2023/07/31 01:48:11;;;;;;;4.25;1.63;;;13.60;99.90;;;13.39;100.00;97271.19;4997769;28;20352;-38
2023/07/31 01:50:37;;;;;;;2.85;1.60;;;13.70;99.90;;;13.46;100.00;97264.66;5002616;28;20160;-38
2023/07/31 01:53:02;;;;;;;3.45;1.35;;;13.80;99.90;;;13.50;100.00;97264.44;4993690;28;20046;-39
2023/07/31 01:55:28;;;;;;;3.40;1.38;;;13.80;99.90;;;13.53;100.00;97261.63;5006400;28;20095;-38
2023/07/31 01:57:54;;;;;;;4.50;1.42;;;13.80;99.90;;;13.51;100.00;97252.91;5012688;28;20033;-38
2023/07/31 02:00:20;;;;;;;2.58;1.40;;;13.90;99.90;;;13.62;100.00;97256.78;5010854;28;20060;-38
2023/07/31 02:02:45;;;;;;;6.15;1.50;;;13.90;99.90;;;13.65;100.00;97254.84;5011198;28;20545;-39
2023/07/31 02:05:11;;;;;;;7.25;1.35;;;14.00;99.90;;;13.68;100.00;97253.84;5007622;28;20494;-38
2023/07/31 02:07:37;;;;;;;6.82;1.73;;;14.00;99.90;;;13.70;100.00;97254.59;5010315;28;20029;-38
2023/07/31 02:10:03;;;;;;;3.10;1.30;;;14.00;99.90;;;13.65;100.00;97243.38;5008107;28;20749;-39
2023/07/31 02:12:31;;;;;;;2.75;1.45;;;14.00;99.90;;;13.72;100.00;97247.44;5009734;28;20033;-38
2023/07/31 02:14:57;;;;;;;4.38;1.55;;;14.00;99.90;;;13.71;100.00;97245.69;5008601;28;20405;-39
2023/07/31 02:17:23;;;;;;;3.88;1.80;;;14.00;99.90;;;13.72;100.00;97245.63;5012083;28;20490;-39
2023/07/31 02:19:49;;;;;;;4.72;1.83;;;14.00;99.90;;;13.76;100.00;97238.38;5015025;28;21223;-38
2023/07/31 02:22:14;;;;;;;3.00;1.45;;;14.10;99.90;;;13.76;100.00;97238.38;5012132;28;20022;-38
2023/07/31 02:24:40;;;;;;;3.72;1.55;;;14.10;99.90;;;13.68;100.00;97222.88;5013022;28;20028;-38
2023/07/31 02:27:06;;;;;;;2.00;1.60;;;14.00;99.90;;;13.74;100.00;97219.91;5009219;28;20040;-39
2023/07/31 02:29:32;;;;;;;2.28;1.30;;;14.00;99.90;;;13.73;100.00;97227.94;5009628;28;20029;-38
2023/07/31 02:31:57;;;;;;;4.47;1.63;;;14.00;99.90;;;13.71;100.00;97230.69;4992492;28;20621;-38
2023/07/31 02:34:23;;;;;;;5.10;1.63;;;14.00;99.90;;;13.70;100.00;97228.94;4994957;28;20092;-38
2023/07/31 02:36:48;;;;;;;2.90;1.40;;;14.00;99.90;;;13.63;100.00;97216.97;5007356;28;20042;-38
2023/07/31 02:39:14;;;;;;;6.95;1.40;;;14.00;99.90;;;13.63;100.00;97227.56;5008682;28;20676;-39
2023/07/31 02:41:40;;;;;;;3.70;1.67;;;13.90;99.90;;;13.56;100.00;97220.88;5013036;28;20041;-38
2023/07/31 02:44:06;;;;;;;5.63;1.50;;;13.80;99.90;;;13.55;100.00;97222.66;5010336;28;20497;-38
2023/07/31 02:46:31;;;;;;;3.08;1.40;;;13.80;99.90;;;13.53;100.00;97221.88;5014077;28;20025;-38
2023/07/31 02:48:57;;;;;;;3.50;1.65;;;13.80;99.90;;;13.54;100.00;97210.34;5008898;28;20029;-38
2023/07/31 02:51:23;;;;;;;4.93;1.50;;;13.90;99.90;;;13.60;100.00;97213.63;5015225;28;20458;-38
2023/07/31 02:53:49;;;;;;;1.77;1.25;;;13.90;99.90;;;13.62;100.00;97212.63;5013983;28;20033;-38
2023/07/31 02:56:15;;;;;;;3.03;1.20;;;13.90;99.90;;;13.65;100.00;97212.44;5012644;28;20670;-38
2023/07/31 02:58:40;;;;;;;2.58;1.55;;;13.90;99.90;;;13.63;100.00;97203.72;5012444;28;20037;-38
2023/07/31 03:01:06;;;;;;;2.75;1.48;;;13.90;99.90;;;13.58;100.00;97200.44;5009861;28;20057;-38
2023/07/31 03:03:32;;;;;;;2.75;1.52;;;13.90;99.90;;;13.50;100.00;97203.50;5011276;28;20535;-38
2023/07/31 03:05:57;;;;;;;2.50;1.30;;;13.80;99.90;;;13.45;100.00;97204.69;5011158;28;21042;-38
2023/07/31 03:08:23;;;;;;;3.53;1.48;;;13.80;99.90;;;13.38;100.00;97209.41;5014340;28;20080;-38
2023/07/31 03:10:49;;;;;;;3.83;1.60;;;13.70;99.90;;;13.32;100.00;97205.31;5012175;28;20147;-38
2023/07/31 03:13:14;;;;;;;1.90;1.42;;;13.60;99.90;;;13.31;100.00;97210.66;5025436;28;20045;-38
2023/07/31 03:15:43;;;;;;;3.88;1.70;;;13.60;99.90;;;13.23;100.00;97203.09;5014528;28;20041;-38
2023/07/31 03:18:09;;;;;;;3.05;1.50;;;13.60;99.90;;;13.28;100.00;97218.72;5009487;28;20038;-38
2023/07/31 03:20:34;;;;;;;4.22;1.55;;;13.60;99.90;;;13.28;100.00;97213.44;5015061;28;20444;-38
2023/07/31 03:23:00;;;;;;;3.85;1.60;;;13.60;99.90;;;13.30;100.00;97208.94;5012674;28;20025;-39
2023/07/31 03:25:26;;;;;;;4.68;1.75;;;13.60;99.90;;;13.35;100.00;97202.50;5009240;28;20040;-38
2023/07/31 03:27:51;;;;;;;2.75;1.38;;;13.60;99.90;;;13.41;100.00;97203.13;5015367;28;21415;-38
2023/07/31 03:30:17;;;;;;;3.40;1.77;;;13.70;99.90;;;13.43;100.00;97212.69;5010709;28;20469;-39
2023/07/31 03:32:43;;;;;;;4.05;1.80;;;13.70;99.90;;;13.47;100.00;97213.41;5011680;28;20026;-38
2023/07/31 03:35:09;;;;;;;2.80;1.73;;;13.80;99.90;;;13.45;100.00;97208.16;5013729;28;20030;-38
2023/07/31 03:37:34;;;;;;;4.13;1.65;;;13.80;99.90;;;13.47;100.00;97206.28;5009905;28;20022;-38
2023/07/31 03:40:00;;;;;;;4.97;1.60;;;13.80;99.90;;;13.47;100.00;97206.28;5011343;28;20072;-38
2023/07/31 03:42:26;;;;;;;3.15;1.50;;;13.80;99.90;;;13.47;100.00;97216.91;5014222;28;20040;-38
2023/07/31 03:44:51;;;;;;;5.13;1.30;;;13.80;99.90;;;13.46;100.00;97209.91;5009733;28;20026;-38
2023/07/31 03:47:17;;;;;;;4.30;1.73;;;13.80;99.90;;;13.50;100.00;97211.44;5006714;28;20075;-38
2023/07/31 03:49:43;;;;;;;2.90;1.60;;;13.80;99.90;;;13.51;100.00;97209.66;5012847;28;20032;-38
2023/07/31 03:52:08;;;;;;;3.78;1.48;;;13.80;99.90;;;13.59;100.00;97220.72;5010506;28;20545;-38
2023/07/31 03:54:34;;;;;;;2.70;1.55;;;13.80;99.90;;;13.64;100.00;97218.69;5013040;28;20038;-38
2023/07/31 03:57:00;;;;;;;10.10;1.90;;;13.90;99.90;;;13.71;100.00;97224.50;5011381;28;20048;-38
2023/07/31 03:59:25;;;;;;;3.50;1.48;;;14.00;99.90;;;13.75;100.00;97221.63;5009600;28;20033;-40
2023/07/31 04:01:51;;;;;;;6.05;1.60;;;14.00;99.90;;;13.85;100.00;97221.97;5011498;28;20097;-38
2023/07/31 04:04:17;;;;;;;3.63;1.70;;;14.10;99.90;;;13.93;100.00;97216.28;5008435;28;21338;-38
2023/07/31 04:06:42;;;;;;;2.58;1.70;;;14.20;99.90;;;14.03;100.00;97221.94;5010957;28;20018;-39
2023/07/31 04:09:08;;;;;;;4.63;1.42;;;14.30;99.90;;;14.08;100.00;97212.78;5011865;28;20544;-38
2023/07/31 04:11:34;;;;;;;3.90;1.40;;;14.40;99.90;;;14.25;100.00;97217.19;5013274;28;20034;-38
2023/07/31 04:13:59;;;;;;;3.58;1.40;;;14.50;99.90;;;14.35;100.00;97217.53;5011615;28;20037;-39
2023/07/31 04:16:25;;;;;;;4.15;1.42;;;14.60;99.90;;;14.43;100.00;97212.69;5011649;28;20122;-38
2023/07/31 04:18:51;;;;;;;3.10;1.40;;;14.70;99.90;;;14.55;100.00;97204.97;5013200;28;20389;-38
2023/07/31 04:21:17;;;;;;;5.90;1.45;;;14.80;99.90;;;14.61;100.00;97208.19;5011767;28;20025;-38
2023/07/31 04:23:43;;;;;;;3.15;1.45;;;14.90;99.90;;;14.69;100.00;97213.88;5009670;28;20033;-40
2023/07/31 04:26:08;;;;;;;2.05;1.30;;;14.90;99.90;;;14.74;100.00;97200.38;5014005;28;20032;-38
2023/07/31 04:28:34;;;;;;;3.55;1.67;;;15.00;99.90;;;14.80;100.00;97204.47;5012283;28;20642;-38
2023/07/31 04:31:00;;;;;;;4.78;1.85;;;15.00;99.90;;;14.87;100.00;97200.53;5017705;28;20034;-38
2023/07/31 04:33:26;;;;;;;2.25;1.15;;;15.10;99.90;;;14.96;100.00;97209.75;5012786;28;20040;-38
2023/07/31 04:35:53;;;;;;;2.17;1.15;;;15.20;99.90;;;15.03;100.00;97193.38;5014707;28;20033;-38
2023/07/31 04:38:20;;;;;;;5.25;1.73;;;15.30;99.90;;;15.03;100.00;97184.56;5012783;28;20064;-38
2023/07/31 04:40:46;;;;;;;4.03;1.63;;;15.30;99.90;;;15.17;100.00;97205.00;5015918;28;20035;-38
2023/07/31 04:43:12;;;;;;;1.80;1.20;;;15.40;99.90;;;15.23;100.00;97209.94;5011179;28;20026;-38
2023/07/31 04:45:37;;;;;;;2.33;1.60;;;15.50;99.90;;;15.13;100.00;97185.75;5010699;28;20025;-39
2023/07/31 04:48:03;;;;;;;2.58;1.73;;;15.60;99.90;;;15.35;100.00;97211.88;5010592;28;20436;-38
2023/07/31 04:50:30;;;;;;;2.47;1.40;;;15.60;99.90;;;15.42;100.00;97207.06;5009173;28;20041;-38
2023/07/31 04:52:57;;;;;;;3.78;1.45;;;15.60;99.90;;;15.41;100.00;97190.25;5008856;28;20091;-38
2023/07/31 04:55:22;;;;;;;5.20;1.30;;;15.80;99.90;;;15.59;100.00;97206.03;5008771;28;20512;-38
2023/07/31 04:57:48;;;;;;;4.78;1.55;;;15.80;99.90;;;15.64;100.00;97212.78;5015448;28;20037;-38
2023/07/31 05:00:14;;;;;;;2.97;1.27;;;15.90;99.90;;;15.69;100.00;97203.72;5008625;28;20071;-38
2023/07/31 05:02:39;;;;;;;3.08;1.40;;;15.90;99.90;;;15.71;100.00;97209.78;5015828;28;20084;-38
2023/07/31 05:05:05;;;;;;;3.30;1.60;;;16.00;99.90;;;15.73;100.00;97206.06;5009627;28;20029;-38
2023/07/31 05:07:31;;;;;;;3.25;1.40;;;16.00;99.90;;;15.71;100.00;97196.50;5014018;28;20120;-38
2023/07/31 05:09:56;;;;;;;2.13;1.40;;;16.00;99.90;;;15.73;100.00;97200.75;5009550;28;20459;-38
2023/07/31 05:12:22;;;;;;;4.85;1.63;;;16.00;99.90;;;15.74;100.00;97199.84;5006924;28;20054;-38
2023/07/31 05:14:48;;;;;;;2.10;1.40;;;16.00;99.90;;;15.75;100.00;97196.22;5011241;28;20107;-38
2023/07/31 05:17:14;;;;;;;3.42;2.08;;;16.00;99.90;;;15.76;100.00;97184.66;5006382;28;20034;-40
2023/07/31 05:19:40;;;;;;;3.60;1.50;;;16.00;99.90;;;15.78;100.00;97193.38;5010950;28;20029;-38
2023/07/31 05:22:05;;;;;;;4.78;1.65;;;16.00;99.90;;;15.80;100.00;97190.63;5005255;28;20048;-38
2023/07/31 05:24:31;;;;;;;4.03;1.80;;;16.00;99.90;;;15.87;100.00;97193.78;5010612;28;20033;-38
2023/07/31 05:26:57;;;;;;;4.05;1.50;;;16.10;99.90;;;15.84;100.00;97193.03;5010662;28;20052;-38
2023/07/31 05:29:23;;;;;;;2.90;1.30;;;16.10;99.90;;;15.84;100.00;97195.69;5011840;28;20029;-38
2023/07/31 05:31:48;;;;;;;6.80;1.55;;;16.10;99.90;;;15.90;100.00;97201.56;5010201;28;20448;-38
2023/07/31 05:34:14;;;;;;;3.47;1.70;;;16.10;99.90;;;15.98;100.00;97197.47;5007582;28;20862;-40
2023/07/31 05:36:40;;;;;;;3.97;1.38;;;16.20;99.90;;;16.12;100.00;97201.09;5011766;28;20038;-38
2023/07/31 05:39:06;;;;;;;2.25;1.40;;;16.30;99.90;;;16.28;100.00;97201.84;5017559;28;20029;-40
2023/07/31 05:41:31;;;;;;;5.05;1.60;;;16.50;99.90;;;16.48;100.00;97211.22;5010068;28;20031;-38
2023/07/31 05:43:57;;;;;;;4.43;1.60;;;16.70;99.90;;;16.64;100.00;97203.09;5010383;28;20037;-39
2023/07/31 05:46:23;;;;;;;4.82;1.80;;;16.80;99.90;;;16.78;100.00;97200.41;5006227;28;20033;-38
2023/07/31 05:48:49;;;;;;;4.05;1.40;;;17.00;99.90;;;16.89;100.00;97194.41;5006209;28;20034;-39
2023/07/31 05:51:14;;;;;;;4.45;1.33;;;17.10;99.90;;;17.02;100.00;97190.94;5018861;28;20033;-38
2023/07/31 05:53:40;;;;;;;4.55;1.40;;;17.20;99.90;;;17.15;100.00;97194.47;5016093;28;20391;-38
2023/07/31 05:56:06;;;;;;;3.30;1.60;;;17.30;99.90;;;17.22;100.00;97187.78;5011010;28;20504;-40
2023/07/31 05:58:32;;;;;;;5.03;1.35;;;17.40;99.90;;;17.26;100.00;97183.94;5017040;28;20037;-38
2023/07/31 06:00:58;;;;;;;2.67;1.20;;;17.50;99.90;;;17.34;100.00;97188.78;5012453;28;20493;-38
2023/07/31 06:03:23;;;;;;;3.63;1.40;;;17.50;99.90;;;17.42;97.71;97194.41;5008192;28;22285;-38
2023/07/31 06:05:49;;;;;;;2.75;1.45;;;17.60;99.90;;;17.52;96.22;97194.66;5017771;28;20041;-38
2023/07/31 06:08:15;;;;;;;4.43;1.58;;;17.70;99.90;;;17.55;95.48;97189.13;5010961;28;20048;-39
2023/07/31 06:10:41;;;;;;;4.13;1.50;;;17.80;99.90;;;17.65;95.21;97200.00;5017000;28;20029;-38
2023/07/31 06:13:06;;;;;;;3.30;1.42;;;17.80;99.90;;;17.77;92.69;97195.66;5015731;28;20175;-38
2023/07/31 06:15:33;;;;;;;1.58;1.10;;;18.00;99.90;;;17.96;90.84;97193.41;5009324;28;20032;-37
2023/07/31 06:18:01;;;;;;;3.47;1.70;;;18.20;99.90;;;18.14;90.10;97191.25;5015711;28;20033;-39
2023/07/31 06:20:28;;;;;;;4.38;1.60;;;18.40;99.90;;;18.34;86.87;97197.88;5009774;28;20043;-40
2023/07/31 06:22:53;;;;;;;4.57;1.50;;;18.50;99.90;;;18.40;83.23;97192.06;5014153;28;20029;-38
2023/07/31 06:25:19;;;;;;;2.78;1.65;;;18.70;99.90;;;18.41;81.59;97192.91;5010875;28;20440;-38
2023/07/31 06:27:45;;;;;;;6.13;1.70;;;18.60;99.90;;;18.46;82.50;97190.78;5018322;28;20022;-39
2023/07/31 06:30:11;;;;;;;3.53;1.80;;;18.70;99.90;;;18.65;80.88;97187.63;5015383;28;20025;-38
2023/07/31 06:32:37;;;;;;;5.03;1.67;;;18.90;99.90;;;18.88;79.34;97200.19;5003168;28;20033;-38
2023/07/31 06:35:03;;;;;;;4.47;1.63;;;19.10;99.90;;;19.03;76.45;97197.34;5007732;28;20515;-38
2023/07/31 06:37:29;;;;;;;5.47;2.05;;;19.20;99.90;;;19.05;77.68;97182.03;5013625;28;20033;-38
2023/07/31 06:39:55;;;;;;;4.25;1.60;;;19.40;99.90;;;19.21;76.40;97195.97;5017517;28;20048;-39
2023/07/31 06:42:20;;;;;;;3.05;1.60;;;19.40;99.90;;;19.21;75.92;97200.47;5009669;28;20053;-41
2023/07/31 06:44:46;;;;;;;7.32;1.67;;;19.40;99.90;;;19.13;77.32;97190.34;5012079;28;20026;-39
2023/07/31 06:47:12;;;;;;;3.90;2.17;;;19.40;99.90;;;19.24;74.79;97189.53;5006709;28;20037;-38
2023/07/31 06:49:37;;;;;;;4.80;1.70;;;19.50;99.90;;;19.34;74.48;97203.91;5018993;28;20080;-39
2023/07/31 06:52:04;;;;;;;4.80;1.50;;;19.60;99.90;;;19.46;74.43;97202.13;5019018;28;20037;-38
2023/07/31 06:54:29;;;;;;;3.03;1.48;;;19.70;99.90;;;19.61;74.85;97210.78;5011290;28;20804;-39
2023/07/31 06:56:55;;;;;;;5.65;1.63;;;19.80;99.90;;;19.69;72.54;97212.91;5015282;28;20659;-38
2023/07/31 06:59:21;;;;;;;2.97;1.60;;;19.90;99.90;;;19.84;70.56;97203.69;5010556;28;20269;-40
2023/07/31 07:01:46;;;;;;;3.63;1.70;;;20.10;99.90;;;19.94;70.52;97210.06;5013614;28;20041;-37
2023/07/31 07:04:13;;;;;;;3.15;1.50;;;20.10;99.90;;;19.84;69.32;97217.09;5013148;28;20484;-39
2023/07/31 07:06:39;;;;;;;2.28;1.50;;;20.00;99.90;;;19.60;69.82;97206.44;5015902;28;20072;-38
2023/07/31 07:09:05;;;;;;;4.80;1.55;;;19.90;99.90;;;19.60;72.80;97209.94;5017364;28;20053;-39
2023/07/31 07:11:31;;;;;;;3.95;1.75;;;19.80;99.90;;;19.65;72.36;97206.94;5016166;28;20025;-38
2023/07/31 07:13:57;;;;;;;2.92;1.40;;;19.80;99.90;;;19.80;70.36;97205.75;5009967;28;20128;-38
2023/07/31 07:16:22;;;;;;;2.97;1.52;;;20.00;99.90;;;20.12;70.41;97209.59;5012004;28;20233;-39
2023/07/31 07:18:48;;;;;;;8.50;1.60;;;20.30;99.90;;;20.36;65.80;97207.63;5017014;28;20061;-38
2023/07/31 07:21:15;;;;;;;4.72;1.75;;;20.60;99.90;;;20.77;65.48;97211.50;5010607;28;20140;-38
2023/07/31 07:23:42;;;;;;;4.00;1.63;;;20.90;99.90;;;21.04;63.73;97204.03;5006549;28;20021;-39
2023/07/31 07:26:08;;;;;;;5.78;1.75;;;21.20;99.90;;;21.30;60.12;97197.34;5016732;28;20337;-38
2023/07/31 07:28:34;;;;;;;5.93;1.90;;;21.40;99.90;;;21.27;62.07;97188.69;5005941;28;20513;-38
2023/07/31 07:30:59;;;;;;;8.27;1.83;;;21.40;99.90;;;21.21;63.51;97183.84;5013651;28;20045;-39
2023/07/31 07:33:25;;;;;;;3.85;1.73;;;21.40;99.90;;;21.10;60.06;97187.41;5008225;28;20046;-38
2023/07/31 07:35:51;;;;;;;7.60;2.28;;;21.30;99.90;;;20.90;60.71;97195.28;5014922;28;20611;-38
2023/07/31 07:38:19;;;;;;;6.20;2.55;;;21.10;99.90;;;20.71;62.27;97184.34;5011622;28;20044;-39
2023/07/31 07:40:46;;;;;;;4.40;1.83;;;21.00;99.90;;;20.65;64.24;97180.34;5005840;28;20048;-39
2023/07/31 07:43:12;;;;;;;4.22;1.85;;;20.90;99.90;;;20.56;62.30;97179.22;5009276;28;20025;-39
2023/07/31 07:45:38;;;;;;;3.03;1.73;;;20.80;99.90;;;20.56;63.40;97191.78;5004443;28;20855;-38
2023/07/31 07:48:04;;;;;;;4.57;1.90;;;20.80;99.90;;;20.64;64.14;97188.50;5016710;28;20033;-39
2023/07/31 07:50:29;;;;;;;4.88;1.73;;;20.80;99.90;;;20.77;60.93;97183.88;5013159;28;20489;-38
2023/07/31 07:52:55;;;;;;;4.55;1.90;;;21.00;99.90;;;20.82;62.47;97181.66;5019113;28;20249;-39
2023/07/31 07:55:20;;;;;;;7.05;1.80;;;21.10;99.90;;;20.99;61.69;97177.56;5005942;28;20416;-39
2023/07/31 07:57:46;;;;;;;5.63;1.83;;;21.10;99.90;;;20.96;59.76;97189.41;5001903;28;20025;-40
2023/07/31 08:00:13;;;;;;;5.55;2.25;;;21.20;99.90;;;21.13;59.29;97177.28;5008924;28;21730;-40
2023/07/31 08:02:39;;;;;;;5.65;2.17;;;21.30;99.90;;;21.30;58.74;97183.06;5009324;28;20157;-40
2023/07/31 08:05:05;;;;;;;6.43;2.25;;;21.50;99.90;;;21.51;57.05;97183.13;5007955;28;20029;-39
2023/07/31 08:07:30;;;;;;;6.75;1.92;;;21.70;99.90;;;21.70;56.33;97171.69;5004559;28;20030;-40
2023/07/31 08:09:56;;;;;;;8.95;1.92;;;21.90;99.90;;;21.80;58.00;97174.41;5011679;28;20025;-38
2023/07/31 08:12:22;;;;;;;6.03;2.03;;;22.00;99.90;;;21.80;57.69;97171.72;5014193;28;20080;-38
2023/07/31 08:14:47;;;;;;;25.65;5.80;;;22.00;99.90;;;21.73;54.95;97166.03;5006512;28;20401;-39
2023/07/31 08:17:13;;;;;;;6.43;2.40;;;22.00;99.90;;;21.61;57.04;97175.16;5005954;28;20027;-38
2023/07/31 08:19:39;;;;;;;8.65;2.47;;;21.80;99.90;;;21.52;57.31;97166.91;5011060;28;20040;-38
2023/07/31 08:22:04;;;;;;;5.13;2.03;;;21.70;99.90;;;21.56;58.91;97161.28;5012505;28;20041;-39
2023/07/31 08:24:30;;;;;;;6.43;2.38;;;21.70;99.90;;;21.65;56.80;97168.53;5016656;28;20057;-38
2023/07/31 08:26:56;;;;;;;3.83;1.90;;;21.80;99.90;;;21.79;56.24;97154.78;5014224;28;20041;-39
2023/07/31 08:29:21;;;;;;;7.80;2.05;;;22.00;99.90;;;21.99;56.91;97162.94;5009440;28;20032;-38
2023/07/31 08:31:47;;;;;;;5.55;2.03;;;22.30;99.90;;;22.03;55.27;97157.16;4994984;28;20112;-39
2023/07/31 08:34:13;;;;;;;5.72;1.98;;;22.30;99.90;;;22.34;62.92;97143.72;5000402;28;20063;-38
2023/07/31 08:36:39;;;;;;;4.38;1.90;;;22.60;99.90;;;22.42;55.23;97154.66;5000979;28;20421;-38
2023/07/31 08:39:05;;;;;;;6.57;2.05;;;22.70;99.90;;;22.48;54.16;97162.16;5011981;28;20025;-39
2023/07/31 08:41:30;;;;;;;4.72;1.90;;;22.80;99.90;;;22.47;52.76;97154.25;5003050;28;20034;-38
2023/07/31 08:43:57;;;;;;;5.55;1.80;;;22.80;99.70;;;22.53;53.32;97151.00;5011417;28;20025;-39
2023/07/31 08:46:23;;;;;;;5.60;2.30;;;22.90;99.40;;;22.81;51.30;97149.38;5000518;28;20041;-38
2023/07/31 08:48:50;;;;;;;4.45;2.00;;;23.00;98.90;;;23.13;51.94;97148.31;5014189;28;20871;-39
2023/07/31 08:51:16;;;;;;;4.45;2.22;;;23.30;99.40;;;23.06;53.19;97141.78;5010405;28;20049;-40
2023/07/31 08:53:42;;;;;;;4.03;1.77;;;23.40;99.30;;;22.95;51.82;97145.44;5007855;28;20065;-39
2023/07/31 08:56:08;;;;;;;5.07;2.10;;;23.30;98.70;;;22.98;51.33;97147.81;5013025;28;20029;-38
2023/07/31 08:58:36;;;;;;;6.45;2.03;;;23.30;98.20;;;23.06;52.98;97156.06;5006033;28;20042;-39
2023/07/31 09:01:05;;;;;;;7.78;2.75;;;23.40;99.30;;;23.04;51.18;97157.16;4999718;28;20030;-38
2023/07/31 09:03:35;;;;;;;7.72;2.30;;;23.40;98.00;;;23.20;50.83;97154.81;5023682;28;20037;-40
2023/07/31 09:06:04;;;;;;;6.53;2.08;;;23.50;98.30;;;23.12;50.37;97149.28;5010286;28;20030;-39
2023/07/31 09:08:34;;;;;;;4.72;2.05;;;23.40;97.80;;;23.13;50.50;97139.34;5003644;28;20728;-39
2023/07/31 09:11:05;;;;;;;3.63;1.83;;;23.40;97.90;;;23.20;50.95;97137.78;5006552;28;20585;-38
2023/07/31 09:13:33;;;;;;;7.38;2.10;;;23.50;98.10;;;23.17;49.92;97141.63;5003590;28;20707;-40
2023/07/31 09:15:59;;;;;;;7.78;2.00;;;23.50;97.20;;;23.23;50.96;97118.69;4999248;28;20025;-39
2023/07/31 09:18:24;;;;;;;4.25;1.90;;;23.50;97.60;;;23.22;50.21;97133.13;5001622;28;20111;-39
2023/07/31 09:21:06;;;;;;;6.30;2.10;;;23.40;97.40;;;23.15;51.90;97140.06;5008669;28;20037;-40
2023/07/31 09:23:51;;;;;;;4.25;1.92;;;23.30;98.30;;;23.12;51.83;97137.69;5009698;28;20033;-39
2023/07/31 09:26:36;;;;;;;4.35;2.17;;;23.30;98.30;;;23.03;52.41;97140.19;5010781;28;20021;-40
2023/07/31 09:29:08;;;;;;;5.88;2.08;;;23.20;98.60;;;22.78;51.80;97121.91;5002995;28;20025;-40
2023/07/31 09:31:42;;;;;;;7.13;2.35;;;23.10;97.90;;;22.74;54.92;97124.03;5006723;28;20227;-38
2023/07/31 09:34:08;;;;;;;5.20;1.75;;;23.00;99.10;;;22.83;53.27;97125.03;5014014;28;20021;-39
2023/07/31 09:36:49;;;;;;;7.40;2.30;;;23.00;99.00;;;22.65;52.42;97128.41;5004955;28;20360;-39
2023/07/31 09:39:16;;;;;;;7.00;2.05;;;23.00;98.00;;;22.63;53.63;97116.06;5006460;28;20072;-40
2023/07/31 09:41:47;;;;;;;3.35;1.83;;;22.90;98.50;;;22.59;53.74;97109.28;5010746;28;20041;-39
2023/07/31 09:44:13;;;;;;;7.80;2.17;;;22.90;98.40;;;22.66;54.15;97102.38;5008951;28;20021;-38
2023/07/31 09:46:38;;;;;;;3.25;1.98;;;23.00;98.60;;;22.78;52.89;97097.72;5006911;28;20463;-40
2023/07/31 09:49:12;;;;;;;4.80;2.03;;;23.00;98.10;;;22.90;52.37;97095.72;5006075;28;20048;-40
2023/07/31 09:51:40;;;;;;;9.95;2.40;;;23.20;98.00;;;23.09;52.87;97086.84;5005035;28;20030;-39
2023/07/31 09:54:13;;;;;;;7.05;2.10;;;23.40;98.60;;;23.50;51.95;97079.44;5006125;28;20252;-39
2023/07/31 09:56:48;;;;;;;5.43;2.03;;;23.70;97.70;;;23.59;48.70;97083.94;5009436;28;20292;-39
2023/07/31 09:59:20;;;;;;;4.75;2.05;;;23.90;96.10;;;23.55;49.02;97085.22;5013492;28;20040;-38
2023/07/31 10:01:46;;;;;;;4.97;2.08;;;23.90;96.00;;;23.47;51.64;97075.16;5012275;28;20026;-40
2023/07/31 10:04:13;;;;;;;6.50;2.30;;;23.90;97.10;;;23.50;50.23;97082.97;5012471;28;20535;-38
2023/07/31 10:06:42;;;;;;;8.73;2.50;;;23.90;96.30;;;23.41;49.83;97076.59;5010681;28;20435;-38
2023/07/31 10:09:11;;;;;;;4.38;1.98;;;23.80;96.10;;;23.34;50.25;97066.56;5013697;28;20496;-40
2023/07/31 10:11:51;;;;;;;4.22;2.00;;;23.70;96.30;;;23.40;50.84;97065.97;5006053;28;20029;-39
2023/07/31 10:14:20;;;;;;;3.67;1.80;;;23.60;96.90;;;23.48;49.28;97067.97;5015996;28;20120;-39